Time;durP1;ratioP1;P1;durP2;ratioP2;P2;SDS_P1;SDS_P2;PMS_P1;PMS_P2;Temp;Humidity;BMP_temperature;BMP_pressure;BME280_temperature;BME280_humidity;BME280_pressure;Samples;Min_cycle;Max_cycle;Signal;HPM_P1;HPM_P2
2023/04/24 00:01:33;;;;;;;13.40;7.50;;;;;;;16.02;37.90;100036.59;108219;1253;74180;-66
2023/04/24 00:04:01;;;;;;;13.20;7.60;;;;;;;15.97;37.88;100040.05;108193;1254;72675;-67
2023/04/24 00:06:32;;;;;;;14.90;8.50;;;;;;;16.12;37.49;100036.50;108196;1257;75344;-67
2023/04/24 00:09:00;;;;;;;;;;;;;;;16.05;37.50;100040.25;108203;1253;63503;-67
2023/04/24 00:11:27;;;;;;;14.40;8.00;;;;;;;16.11;37.44;100036.91;108196;1253;60316;-67
2023/04/24 00:13:54;;;;;;;14.40;7.70;;;;;;;16.15;37.45;100042.52;108021;1253;76053;-67
2023/04/24 00:16:21;;;;;;;13.30;7.70;;;;;;;15.80;37.82;100048.36;108027;1255;70292;-67
2023/04/24 00:18:48;;;;;;;13.60;8.00;;;;;;;16.07;37.59;100042.98;108142;1258;73693;-66
2023/04/24 00:21:18;;;;;;;17.90;8.60;;;;;;;15.90;37.71;100038.38;108105;1253;62652;-66
2023/04/24 00:23:45;;;;;;;20.00;8.60;;;;;;;16.10;37.47;100043.16;108166;1252;61073;-66
2023/04/24 00:26:12;;;;;;;16.00;8.90;;;;;;;16.14;37.39;100038.65;108211;1254;75923;-67
2023/04/24 00:28:39;;;;;;;14.80;8.30;;;;;;;16.15;37.31;100040.16;108195;1254;72242;-67
2023/04/24 00:31:05;;;;;;;16.00;8.00;;;;;;;15.96;37.58;100040.46;108221;1254;75277;-67
2023/04/24 00:33:32;;;;;;;15.40;8.00;;;;;;;15.93;37.70;100037.67;108009;1257;62140;-66
2023/04/24 00:35:59;;;;;;;17.20;8.00;;;;;;;15.98;37.49;100043.02;108084;1254;63119;-67
2023/04/24 00:38:26;;;;;;;31.40;11.00;;;;;;;15.61;38.13;100039.52;108181;1253;74532;-66
2023/04/24 00:40:53;;;;;;;21.20;10.40;;;;;;;15.70;38.15;100039.17;108120;1254;69131;-67
2023/04/24 00:43:20;;;;;;;19.30;9.70;;;;;;;15.65;38.59;100034.73;108206;1254;74869;-66
2023/04/24 00:45:47;;;;;;;17.20;9.10;;;;;;;16.16;37.70;100034.64;108123;1253;63907;-67
2023/04/24 00:48:14;;;;;;;17.00;9.00;;;;;;;16.01;37.90;100035.90;107952;1253;61578;-66
2023/04/24 00:50:41;;;;;;;18.20;8.60;;;;;;;16.03;38.03;100038.96;108149;1254;75951;-66
2023/04/24 00:53:08;;;;;;;18.90;8.30;;;;;;;16.04;38.11;100038.94;108097;1253;72489;-67
2023/04/24 00:55:37;;;;;;;12.30;7.60;;;;;;;15.99;38.24;100039.21;108148;1253;74373;-67
2023/04/24 00:58:04;;;;;;;14.30;7.50;;;;;;;15.92;38.28;100035.05;108080;1253;63312;-68
2023/04/24 01:00:31;;;;;;;16.80;7.90;;;;;;;16.07;38.00;100033.95;108091;1255;61281;-67
2023/04/24 01:02:59;;;;;;;17.30;8.30;;;;;;;16.15;37.93;100036.30;108165;1255;74862;-66
2023/04/24 01:05:26;;;;;;;17.30;8.50;;;;;;;16.02;38.07;100040.83;108038;1259;70518;-68
2023/04/24 01:07:53;;;;;;;13.10;7.30;;;;;;;15.95;38.25;100041.42;108189;1254;73992;-65
2023/04/24 01:10:20;;;;;;;18.20;8.70;;;;;;;16.10;38.36;100038.40;108041;1254;63219;-66
2023/04/24 01:12:47;;;;;;;15.70;6.70;;;;;;;16.02;38.62;100038.83;108003;1259;61159;-67
2023/04/24 01:15:14;;;;;;;17.20;7.70;;;;;;;16.26;38.39;100037.06;108045;1254;73585;-66
2023/04/24 01:17:41;;;;;;;15.70;8.20;;;;;;;16.31;38.30;100030.52;108051;1257;72843;-67
2023/04/24 01:20:09;;;;;;;17.30;9.00;;;;;;;16.06;38.57;100029.63;107995;1259;74180;-67
2023/04/24 01:22:36;;;;;;;14.60;7.80;;;;;;;16.08;38.48;100026.27;108020;1253;62407;-65
2023/04/24 01:25:03;;;;;;;12.60;7.20;;;;;;;16.11;38.63;100029.63;108034;1253;60284;-66
2023/04/24 01:27:30;;;;;;;13.20;7.50;;;;;;;16.38;38.35;100029.40;108208;1257;74728;-67
2023/04/24 01:29:57;;;;;;;17.80;8.20;;;;;;;16.54;38.01;100030.31;108024;1254;70655;-67
2023/04/24 01:32:25;;;;;;;14.30;7.50;;;;;;;16.34;38.15;100031.93;108074;1255;74577;-66
2023/04/24 01:34:52;;;;;;;15.90;8.30;;;;;;;16.57;37.91;100033.02;107889;1254;63349;-67
2023/04/24 01:37:18;;;;;;;17.50;8.10;;;;;;;16.67;37.72;100032.02;108000;1258;62387;-66
2023/04/24 01:39:45;;;;;;;12.30;6.70;;;;;;;16.52;37.75;100029.19;108003;1254;74315;-66
2023/04/24 01:42:12;;;;;;;17.90;9.00;;;;;;;16.23;38.32;100029.30;107939;1260;69745;-64
2023/04/24 01:44:39;;;;;;;16.30;7.70;;;;;;;16.04;38.69;100029.20;108027;1255;73719;-65
2023/04/24 01:47:06;;;;;;;17.10;8.70;;;;;;;16.04;38.69;100030.61;107962;1254;63400;-66
2023/04/24 01:49:33;;;;;;;15.60;8.40;;;;;;;15.89;38.99;100024.46;107959;1254;60535;-67
2023/04/24 01:52:00;;;;;;;13.70;7.20;;;;;;;15.88;38.93;100025.55;107965;1254;76092;-67
2023/04/24 01:54:29;;;;;;;13.50;7.10;;;;;;;15.96;39.00;100020.30;108168;1253;72384;-66
2023/04/24 01:56:57;;;;;;;17.00;7.60;;;;;;;16.05;38.93;100018.14;108202;1256;72785;-67
2023/04/24 01:59:24;;;;;;;12.80;7.60;;;;;;;16.13;38.78;100018.70;108082;1252;62861;-66
2023/04/24 02:01:50;;;;;;;18.80;7.40;;;;;;;16.14;38.80;100016.34;108160;1253;60958;-66
2023/04/24 02:04:18;;;;;;;11.70;7.50;;;;;;;16.32;38.56;100013.31;108236;1254;76021;-65
2023/04/24 02:06:46;;;;;;;12.00;7.50;;;;;;;16.30;38.60;100011.83;108182;1258;71790;-66
2023/04/24 02:09:13;;;;;;;15.10;7.70;;;;;;;16.08;38.99;100015.51;108234;1254;73293;-66
2023/04/24 02:11:40;;;;;;;14.00;8.20;;;;;;;15.93;39.23;100010.77;108031;1254;63010;-66
2023/04/24 02:14:07;;;;;;;13.20;8.10;;;;;;;15.80;39.35;100011.00;108045;1254;61528;-67
2023/04/24 02:16:35;;;;;;;13.00;7.90;;;;;;;15.82;39.26;100006.48;108150;1254;76027;-67
2023/04/24 02:19:03;;;;;;;15.00;8.20;;;;;;;15.80;39.41;100009.95;108198;1255;71615;-67
2023/04/24 02:21:30;;;;;;;16.20;8.30;;;;;;;15.82;39.13;100006.96;108100;1257;73686;-66
2023/04/24 02:23:57;;;;;;;17.10;8.50;;;;;;;15.55;39.54;100010.33;108130;1255;61219;-67
2023/04/24 02:26:25;;;;;;;16.60;8.90;;;;;;;15.58;39.41;100002.02;108029;1260;60644;-66
2023/04/24 02:28:51;;;;;;;15.70;8.00;;;;;;;15.66;39.34;100000.98;108157;1252;74493;-66
2023/04/24 02:31:19;;;;;;;17.10;8.20;;;;;;;15.53;39.57;100000.21;108191;1254;72811;-66
2023/04/24 02:33:47;;;;;;;20.90;10.10;;;;;;;15.68;39.41;100000.35;108173;1255;75062;-65
2023/04/24 02:36:14;;;;;;;21.20;9.40;;;;;;;15.60;39.28;100003.10;108126;1254;63765;-64
2023/04/24 02:38:40;;;;;;;21.00;10.50;;;;;;;15.64;39.34;100003.95;108146;1254;60185;-66
2023/04/24 02:41:07;;;;;;;23.50;11.10;;;;;;;15.56;39.34;100009.76;108192;1254;73575;-66
2023/04/24 02:43:34;;;;;;;21.50;11.40;;;;;;;15.45;39.40;100008.81;108060;1254;70541;-64
2023/04/24 02:46:01;;;;;;;24.50;10.40;;;;;;;15.33;39.63;100005.79;108063;1257;74753;-66
2023/04/24 02:48:28;;;;;;;19.70;10.30;;;;;;;15.32;39.53;100004.27;108111;1254;60727;-67
2023/04/24 02:50:55;;;;;;;23.40;11.80;;;;;;;15.40;39.46;100010.15;108136;1252;62231;-66
2023/04/24 02:53:23;;;;;;;27.30;12.70;;;;;;;15.35;39.29;100001.61;108182;1254;73860;-66
2023/04/24 02:55:50;;;;;;;19.80;10.20;;;;;;;15.30;39.38;100000.51;108187;1254;69809;-67
2023/04/24 02:58:17;;;;;;;26.40;12.50;;;;;;;15.26;39.46;99998.96;108249;1254;72671;-66
2023/04/24 03:00:44;;;;;;;23.30;11.50;;;;;;;15.21;39.53;99998.16;108074;1256;61344;-65
2023/04/24 03:03:11;;;;;;;23.10;12.10;;;;;;;15.16;39.55;99997.56;108225;1254;62222;-67
2023/04/24 03:05:38;;;;;;;24.30;11.80;;;;;;;15.21;39.44;99992.48;108125;1254;74914;-67
2023/04/24 03:08:06;;;;;;;19.90;10.10;;;;;;;15.09;39.70;99994.63;108159;1254;71339;-67
2023/04/24 03:10:32;;;;;;;23.30;10.80;;;;;;;15.15;39.67;99996.59;108124;1254;72444;-66
2023/04/24 03:12:59;;;;;;;26.40;11.00;;;;;;;15.17;39.75;99994.70;108040;1254;62507;-67
2023/04/24 03:15:26;;;;;;;25.90;11.70;;;;;;;15.18;39.83;99995.34;108225;1253;61241;-67
2023/04/24 03:17:54;;;;;;;32.50;12.50;;;;;;;15.21;39.91;99993.05;108150;1257;74224;-66
2023/04/24 03:20:23;;;;;;;24.50;11.10;;;;;;;15.39;39.58;99995.02;108140;1254;69952;-66
2023/04/24 03:22:50;;;;;;;21.50;10.40;;;;;;;14.99;40.34;99995.77;108070;1253;72022;-67
2023/04/24 03:25:17;;;;;;;24.30;11.20;;;;;;;15.22;40.04;99994.21;108206;1253;62407;-67
2023/04/24 03:27:44;;;;;;;20.90;11.70;;;;;;;15.29;39.99;99996.85;108092;1254;62151;-67
2023/04/24 03:30:24;;;;;;;35.10;13.30;;;;;;;15.53;39.61;100003.90;108101;1253;74020;-67
2023/04/24 03:32:55;;;;;;;29.80;12.40;;;;;;;15.39;39.84;100006.34;108146;1254;72312;-68
2023/04/24 03:35:25;;;;;;;21.00;11.00;;;;;;;15.14;40.43;100007.08;108207;1253;72316;-68
2023/04/24 03:37:52;;;;;;;29.10;12.90;;;;;;;15.77;39.64;100006.38;108044;1254;63213;-66
2023/04/24 03:40:37;;;;;;;23.70;11.90;;;;;;;15.81;39.45;100009.17;108214;1254;60318;-67
2023/04/24 03:43:11;;;;;;;25.30;10.30;;;;;;;15.96;39.21;100010.88;108016;1257;76328;-67
2023/04/24 03:45:38;;;;;;;30.30;12.40;;;;;;;16.11;38.91;100009.80;108163;1254;71720;-69
2023/04/24 03:48:06;;;;;;;33.40;11.70;;;;;;;16.10;39.02;100010.55;108166;1254;74935;-66
2023/04/24 03:50:33;;;;;;;25.40;12.00;;;;;;;16.21;38.63;100009.73;108141;1254;61053;-66
2023/04/24 03:53:00;;;;;;;22.30;10.80;;;;;;;16.19;38.71;100015.52;108175;1254;60587;-66
2023/04/24 03:55:36;;;;;;;21.70;9.60;;;;;;;16.33;38.63;100011.80;108074;1253;76209;-67
2023/04/24 03:58:03;;;;;;;27.80;11.90;;;;;;;16.43;38.36;100010.81;107967;1254;72381;-69
2023/04/24 04:00:31;;;;;;;28.30;10.60;;;;;;;16.46;38.37;100013.83;108079;1254;73121;-68
2023/04/24 04:03:13;;;;;;;23.10;11.00;;;;;;;16.52;38.18;100016.77;108127;1254;63722;-68
2023/04/24 04:05:40;;;;;;;26.40;12.40;;;;;;;16.38;38.45;100015.78;108246;1254;60451;-67
2023/04/24 04:08:07;;;;;;;20.70;10.20;;;;;;;16.03;39.00;100017.72;108032;1253;74148;-66
2023/04/24 04:10:34;;;;;;;23.60;10.60;;;;;;;16.20;38.93;100017.02;108177;1253;72368;-68
2023/04/24 04:13:04;;;;;;;29.60;11.50;;;;;;;16.23;38.87;100013.13;108006;1254;72515;-66
2023/04/24 04:15:31;;;;;;;19.80;9.80;;;;;;;16.29;38.96;100014.35;108137;1254;61880;-64
2023/04/24 04:17:58;;;;;;;24.30;10.90;;;;;;;16.55;38.73;100015.41;108042;1254;61556;-68
2023/04/24 04:23:14;;;;;;;23.60;10.30;;;;;;;12.41;47.39;100028.93;104920;1289;600218;-67
2023/04/24 04:25:49;;;;;;;21.00;10.90;;;;;;;13.99;44.71;100022.23;107394;1264;61294;-67
2023/04/24 04:28:19;;;;;;;25.70;11.40;;;;;;;14.62;43.76;100018.69;107282;1263;60580;-67
2023/04/24 04:30:47;;;;;;;29.10;10.50;;;;;;;15.77;42.49;100021.20;107367;1264;72291;-67
2023/04/24 04:33:14;;;;;;;29.90;11.30;;;;;;;16.88;41.30;100015.92;107353;1264;72627;-67
2023/04/24 04:35:41;;;;;;;21.50;10.20;;;;;;;17.95;39.81;100012.70;107305;1263;225249;-67
2023/04/24 04:38:10;;;;;;;24.20;10.00;;;;;;;18.76;38.07;100014.40;107451;1264;61964;-67
2023/04/24 04:40:56;;;;;;;22.50;10.60;;;;;;;19.31;36.44;100022.63;107452;1262;59227;-67
2023/04/24 04:43:24;;;;;;;23.60;10.80;;;;;;;19.49;35.78;100014.00;107358;1264;74117;-67
2023/04/24 04:45:55;;;;;;;26.00;11.50;;;;;;;19.69;35.55;100024.94;107381;1264;72941;-67
2023/04/24 04:48:48;;;;;;;29.60;11.30;;;;;;;19.90;35.20;100018.00;107425;1266;74676;-69
2023/04/24 04:51:15;;;;;;;24.20;11.60;;;;;;;20.58;34.57;100019.23;107417;1263;64072;-68
2023/04/24 04:53:42;;;;;;;32.80;12.00;;;;;;;21.27;34.27;100017.20;107340;1262;60051;-68
2023/04/24 04:56:09;;;;;;;27.10;12.40;;;;;;;21.96;33.50;100015.13;107428;1264;74760;-68
2023/04/24 04:58:40;;;;;;;35.10;12.70;;;;;;;22.90;32.46;100012.05;107427;1264;70410;-68
2023/04/24 05:01:09;;;;;;;39.90;13.30;;;;;;;23.68;31.40;100009.95;107383;1267;72918;-68
2023/04/24 05:03:40;;;;;;;37.00;13.60;;;;;;;24.27;30.41;100009.88;107394;1266;61801;-69
2023/04/24 05:06:09;;;;;;;36.00;13.80;;;;;;;24.76;29.93;99997.55;107504;1263;60111;-69
2023/04/24 05:08:39;;;;;;;36.40;12.10;;;;;;;25.51;28.92;99997.86;107442;1267;74697;-68
2023/04/24 05:11:09;;;;;;;52.70;13.10;;;;;;;26.35;28.10;99997.65;107430;1267;72398;-68
2023/04/24 05:13:36;;;;;;;38.80;13.80;;;;;;;27.05;27.20;99993.02;107385;1267;74945;-67
2023/04/24 05:16:17;;;;;;;44.70;12.80;;;;;;;27.86;26.23;99995.52;107347;1264;61798;-68
2023/04/24 05:18:44;;;;;;;43.50;14.10;;;;;;;28.29;25.45;99993.05;107409;1264;61564;-68
2023/04/24 05:21:13;;;;;;;33.80;14.00;;;;;;;28.98;24.38;99990.97;107383;1264;75308;-69
2023/04/24 05:23:41;;;;;;;29.70;12.80;;;;;;;29.46;23.49;99989.92;107414;1264;72317;-68
2023/04/24 05:26:10;;;;;;;35.10;13.00;;;;;;;29.94;22.38;99988.42;107419;1263;74897;-69
2023/04/24 05:28:36;;;;;;;34.90;13.60;;;;;;;30.42;22.23;99986.94;107359;1265;62346;-69
2023/04/24 05:31:07;;;;;;;31.90;13.20;;;;;;;31.03;21.69;99983.86;107394;1264;60354;-70
2023/04/24 05:33:37;;;;;;;35.30;13.40;;;;;;;31.69;20.66;99987.83;107360;1269;73563;-68
2023/04/24 05:36:06;;;;;;;33.30;13.50;;;;;;;31.73;19.36;99986.19;107368;1264;72258;-68
2023/04/24 05:38:33;;;;;;;23.10;11.00;;;;;;;31.72;19.01;99993.84;107350;1269;74803;-70
2023/04/24 05:41:00;;;;;;;23.70;12.60;;;;;;;32.00;18.96;99989.48;107341;1267;62390;-67
2023/04/24 05:43:27;;;;;;;34.10;14.90;;;;;;;32.24;18.28;99987.29;107394;1268;61172;-69
2023/04/24 05:45:53;;;;;;;39.90;16.50;;;;;;;32.22;18.48;99992.23;107343;1265;74036;-69
2023/04/24 05:48:22;;;;;;;35.20;17.90;;;;;;;32.02;18.80;99993.58;107369;1268;72333;-70
2023/04/24 05:50:49;;;;;;;41.60;18.30;;;;;;;32.29;18.81;99985.93;107327;1269;72108;-69
2023/04/24 05:53:16;;;;;;;33.80;16.50;;;;;;;32.18;18.85;99983.63;107356;1265;59864;-70
2023/04/24 05:55:43;;;;;;;24.00;13.60;;;;;;;32.47;18.77;99984.52;107302;1270;60256;-69
2023/04/24 05:58:11;;;;;;;27.90;14.50;;;;;;;32.57;18.45;99982.05;107157;1272;75227;-71
2023/04/24 06:00:41;;;;;;;25.60;12.10;;;;;;;32.51;18.53;99981.95;107380;1266;71370;-66
2023/04/24 06:03:08;;;;;;;20.50;10.50;;;;;;;32.60;18.36;99978.72;107215;1267;73174;-67
2023/04/24 06:05:35;;;;;;;24.80;9.60;;;;;;;32.81;18.23;99971.86;107306;1267;62347;-68
2023/04/24 06:08:02;;;;;;;23.00;9.50;;;;;;;32.92;18.12;99966.85;107307;1267;61388;-70
2023/04/24 06:10:32;;;;;;;17.30;8.60;;;;;;;33.33;17.38;99969.99;107309;1269;75573;-68
2023/04/24 06:13:00;;;;;;;27.80;9.20;;;;;;;33.27;17.04;99965.59;107254;1270;72271;-68
2023/04/24 06:15:30;;;;;;;14.60;6.80;;;;;;;33.30;17.07;99967.94;107266;1270;73042;-68
2023/04/24 06:18:00;;;;;;;15.60;7.90;;;;;;;33.63;16.65;99967.02;107264;1267;61446;-69
2023/04/24 06:20:27;;;;;;;15.50;7.00;;;;;;;33.30;16.81;99969.99;107253;1267;60967;-69
2023/04/24 06:22:54;;;;;;;16.60;6.40;;;;;;;33.50;16.83;99966.55;107219;1265;73816;-69
2023/04/24 06:25:21;;;;;;;16.30;7.10;;;;;;;33.37;16.49;99963.06;107245;1267;70535;-70
2023/04/24 06:27:50;;;;;;;16.30;7.30;;;;;;;33.27;16.23;99964.77;107250;1267;73681;-68
2023/04/24 06:30:17;;;;;;;17.10;7.60;;;;;;;33.53;16.16;99965.21;107231;1267;60973;-68
2023/04/24 06:32:47;;;;;;;14.90;8.10;;;;;;;33.75;16.21;99968.64;107293;1265;61449;-69
2023/04/24 06:35:14;;;;;;;20.40;7.90;;;;;;;33.87;16.35;99971.55;107459;1262;75136;-70
2023/04/24 06:37:42;;;;;;;14.70;5.20;;;;;;;33.83;16.21;99970.23;107526;1261;69579;-69
2023/04/24 06:40:09;;;;;;;15.10;5.40;;;;;;;33.91;16.22;99973.00;107454;1263;75092;-69
2023/04/24 06:42:36;;;;;;;10.90;4.60;;;;;;;34.22;15.97;99973.24;107544;1264;61190;-68
2023/04/24 06:45:03;;;;;;;14.80;4.50;;;;;;;33.94;15.56;99974.25;107540;1260;62788;-69
2023/04/24 06:47:30;;;;;;;8.20;3.90;;;;;;;33.88;15.68;99978.55;107458;1261;74808;-67
2023/04/24 06:49:57;;;;;;;7.70;3.00;;;;;;;33.87;15.07;99976.24;107461;1260;72098;-70
2023/04/24 06:52:23;;;;;;;6.60;2.70;;;;;;;33.99;14.53;99977.94;107482;1265;73335;-67
2023/04/24 06:54:50;;;;;;;11.80;3.30;;;;;;;34.36;14.32;99976.22;107528;1265;62708;-69
2023/04/24 06:57:18;;;;;;;10.20;3.40;;;;;;;34.29;14.50;99978.14;107521;1260;62821;-69
2023/04/24 06:59:44;;;;;;;10.50;4.00;;;;;;;34.41;14.32;99978.98;107622;1260;74218;-67
2023/04/24 07:02:11;;;;;;;6.50;3.10;;;;;;;34.40;14.23;99975.71;107845;1257;63512;-69
2023/04/24 07:04:38;;;;;;;8.00;3.40;;;;;;;34.49;14.21;99976.58;107749;1257;74664;-69
2023/04/24 07:07:06;;;;;;;6.60;3.10;;;;;;;34.25;14.12;99978.70;107738;1257;60600;-69
2023/04/24 07:09:35;;;;;;;4.60;2.70;;;;;;;34.23;13.55;99980.38;107871;1257;62625;-68
2023/04/24 07:12:02;;;;;;;4.90;2.50;;;;;;;34.41;12.95;99977.80;107642;1256;72411;-68
2023/04/24 07:14:28;;;;;;;4.90;2.50;;;;;;;34.58;13.58;99981.94;107776;1257;70360;-68
2023/04/24 07:16:56;;;;;;;3.80;2.30;;;;;;;34.36;12.78;99979.50;107844;1257;71198;-69
2023/04/24 07:19:23;;;;;;;4.70;2.30;;;;;;;33.98;12.63;99984.47;107767;1257;59628;-68
2023/04/24 07:21:50;;;;;;;8.30;2.40;;;;;;;33.62;13.05;99978.54;107780;1257;61809;-69
2023/04/24 07:24:20;;;;;;;6.20;2.40;;;;;;;33.85;13.04;99980.95;107805;1257;73537;-69
2023/04/24 07:26:51;;;;;;;6.00;2.60;;;;;;;34.24;12.94;99979.75;107796;1256;71582;-67
2023/04/24 07:29:19;;;;;;;8.30;2.80;;;;;;;34.17;12.69;99983.69;107704;1257;74687;-69
2023/04/24 07:31:46;;;;;;;7.90;2.80;;;;;;;34.14;12.81;99980.70;107835;1257;60347;-69
2023/04/24 07:34:13;;;;;;;7.40;2.20;;;;;;;34.17;12.86;99981.66;107788;1258;62400;-69
2023/04/24 07:36:41;;;;;;;3.80;2.30;;;;;;;34.05;12.79;99984.78;107894;1257;73148;-68
2023/04/24 07:39:08;;;;;;;3.30;2.30;;;;;;;33.85;12.75;99981.29;107692;1263;72348;-68
2023/04/24 07:41:35;;;;;;;3.10;1.90;;;;;;;34.00;12.83;99984.48;107797;1257;71917;-69
2023/04/24 07:44:01;;;;;;;4.90;2.50;;;;;;;33.89;12.78;99978.09;107786;1257;60731;-70
2023/04/24 07:46:30;;;;;;;7.80;2.00;;;;;;;33.56;13.06;99977.98;107766;1258;62292;-69
2023/04/24 07:48:58;;;;;;;5.00;2.80;;;;;;;33.50;13.39;99981.63;107851;1257;75380;-68
2023/04/24 07:51:40;;;;;;;5.60;2.50;;;;;;;33.82;13.49;99979.23;107795;1257;70991;-69
2023/04/24 07:54:07;;;;;;;4.90;2.20;;;;;;;33.63;13.10;99976.67;107881;1257;73773;-68
2023/04/24 07:56:34;;;;;;;5.10;2.30;;;;;;;32.88;13.63;99981.14;107884;1257;59205;-70
2023/04/24 07:59:01;;;;;;;4.30;2.50;;;;;;;32.90;14.03;99980.81;107857;1257;62298;-69
2023/04/24 08:01:28;;;;;;;5.80;2.30;;;;;;;33.03;13.92;99986.95;107831;1262;74766;-69
2023/04/24 08:03:55;;;;;;;6.30;2.30;;;;;;;32.86;13.49;99984.75;107789;1257;71948;-69
2023/04/24 08:06:22;;;;;;;3.40;2.00;;;;;;;32.50;13.60;99984.36;107808;1257;74657;-68
2023/04/24 08:08:49;;;;;;;5.40;2.30;;;;;;;32.68;14.17;99982.05;107678;1257;62568;-72
2023/04/24 08:11:17;;;;;;;4.10;2.40;;;;;;;32.98;13.86;99979.79;107769;1257;61106;-68
2023/04/24 08:13:44;;;;;;;3.80;1.80;;;;;;;33.22;13.92;99977.38;107692;1257;74910;-69
2023/04/24 08:16:10;;;;;;;7.60;2.60;;;;;;;32.56;14.16;99982.00;107816;1257;71615;-69
2023/04/24 08:18:37;;;;;;;6.70;2.50;;;;;;;32.57;14.46;99981.06;107848;1257;74812;-68
2023/04/24 08:21:04;;;;;;;8.00;2.60;;;;;;;32.36;14.72;99978.71;107833;1258;62375;-69
2023/04/24 08:23:31;;;;;;;4.60;2.30;;;;;;;32.42;14.45;99980.94;107793;1257;62205;-68
2023/04/24 08:25:58;;;;;;;7.00;2.20;;;;;;;32.72;14.56;99973.84;107847;1257;72938;-70
2023/04/24 08:28:25;;;;;;;8.70;2.70;;;;;;;33.03;14.43;99972.45;107931;1256;69642;-68
2023/04/24 08:30:54;;;;;;;4.80;2.60;;;;;;;33.36;14.06;99967.01;107782;1258;74891;-69
2023/04/24 08:33:24;;;;;;;6.10;2.50;;;;;;;33.77;14.11;99968.98;107629;1257;60483;-70
2023/04/24 08:35:51;;;;;;;4.40;2.20;;;;;;;33.91;13.86;99963.72;107691;1257;62404;-69
2023/04/24 08:38:18;;;;;;;5.00;2.30;;;;;;;33.85;13.89;99965.81;107610;1257;67138;-72
2023/04/24 08:40:48;;;;;;;4.40;2.30;;;;;;;32.78;14.24;99963.40;107749;1257;71742;-70
2023/04/24 08:43:14;;;;;;;5.30;2.20;;;;;;;31.86;14.59;99965.16;107788;1257;71155;-71
2023/04/24 08:45:41;;;;;;;5.80;2.30;;;;;;;31.71;14.86;99961.45;107689;1257;60453;-70
2023/04/24 08:48:08;;;;;;;5.20;2.80;;;;;;;31.40;15.05;99955.02;107895;1257;61370;-69
2023/04/24 08:50:50;;;;;;;;;;;;;;;31.30;15.04;99954.51;107652;1257;76436;-71
2023/04/24 08:53:18;;;;;;;3.00;2.20;;;;;;;31.60;14.96;99946.59;107849;1257;71191;-70
2023/04/24 08:55:46;;;;;;;7.10;2.50;;;;;;;32.11;14.52;99945.30;108188;1254;75058;-69
2023/04/24 08:58:14;;;;;;;7.50;2.20;;;;;;;32.25;14.18;99938.59;108065;1254;61502;-69
2023/04/24 09:00:46;;;;;;;8.60;2.30;;;;;;;32.08;14.17;99936.92;108015;1253;60460;-70
2023/04/24 09:03:16;;;;;;;6.40;2.20;;;;;;;31.01;14.35;99941.08;108027;1254;75021;-70
2023/04/24 09:05:45;;;;;;;4.80;2.30;;;;;;;30.73;15.07;99933.76;108209;1254;72938;-69
2023/04/24 09:08:16;;;;;;;4.50;2.30;;;;;;;30.55;15.10;99932.73;107971;1254;74386;-68
2023/04/24 09:10:43;;;;;;;6.50;2.90;;;;;;;30.77;14.72;99933.52;108073;1254;62459;-70
2023/04/24 09:13:10;;;;;;;11.40;3.20;;;;;;;30.94;15.05;99924.45;108006;1254;60300;-68
2023/04/24 09:15:40;;;;;;;3.80;2.20;;;;;;;31.61;14.81;99924.48;108055;1254;75228;-69
2023/04/24 09:18:07;;;;;;;6.80;2.30;;;;;;;32.54;14.66;99918.65;108047;1254;72605;-70
2023/04/24 09:20:35;;;;;;;3.00;2.50;;;;;;;33.22;14.12;99911.63;108022;1254;73703;-69
2023/04/24 09:23:03;;;;;;;5.20;2.20;;;;;;;32.68;13.96;99913.52;108115;1254;62305;-69
2023/04/24 09:25:33;;;;;;;5.70;2.90;;;;;;;33.32;14.05;99916.04;108049;1253;61478;-69
2023/04/24 09:28:04;;;;;;;4.90;2.50;;;;;;;33.79;13.31;99905.79;108099;1254;76228;-70
2023/04/24 09:30:31;;;;;;;11.00;2.70;;;;;;;34.15;13.08;99902.20;108086;1253;62501;-70
2023/04/24 09:33:12;;;;;;;3.60;2.20;;;;;;;34.06;12.64;99902.91;107926;1254;66194;-70
2023/04/24 09:35:50;;;;;;;3.50;2.20;;;;;;;33.85;12.61;99899.09;108116;1254;60638;-71
2023/04/24 09:38:16;;;;;;;2.80;1.80;;;;;;;33.75;12.57;99895.95;108049;1257;60346;-69
2023/04/24 09:40:43;;;;;;;6.90;2.30;;;;;;;33.79;12.91;99891.63;108143;1254;75725;-68
2023/04/24 09:43:10;;;;;;;3.20;2.10;;;;;;;33.63;12.49;99898.55;108192;1253;70674;-70
2023/04/24 09:45:39;;;;;;;5.60;2.50;;;;;;;33.49;12.36;99897.55;108130;1253;74092;-68
2023/04/24 09:48:09;;;;;;;3.50;2.40;;;;;;;32.96;12.25;99901.45;108159;1254;61206;-68
2023/04/24 09:50:36;;;;;;;4.30;2.40;;;;;;;32.89;12.38;99903.80;108229;1254;62837;-69
2023/04/24 09:53:10;;;;;;;3.80;1.90;;;;;;;33.11;12.66;99897.30;108128;1253;74939;-68
2023/04/24 09:55:44;;;;;;;8.90;2.30;;;;;;;32.59;12.94;99897.92;108194;1254;69761;-69
2023/04/24 09:58:11;;;;;;;8.40;2.70;;;;;;;32.27;13.24;99893.45;108272;1251;73871;-69
2023/04/24 10:00:38;;;;;;;10.50;2.40;;;;;;;32.16;13.69;99891.36;108223;1257;61796;-69
2023/04/24 10:03:08;;;;;;;6.60;2.40;;;;;;;31.69;14.22;99894.44;108219;1252;60195;-70
2023/04/24 10:05:36;;;;;;;4.50;2.20;;;;;;;31.70;14.48;99896.05;108215;1252;72824;-69
2023/04/24 10:08:04;;;;;;;6.00;2.20;;;;;;;31.29;14.17;99891.92;108280;1252;72679;-69
2023/04/24 10:10:32;;;;;;;6.20;2.60;;;;;;;30.90;14.71;99888.02;108162;1253;74576;-67
2023/04/24 10:13:00;;;;;;;4.40;2.50;;;;;;;31.31;14.83;99886.89;108201;1254;61475;-67
2023/04/24 10:15:27;;;;;;;6.50;2.40;;;;;;;31.25;14.88;99893.23;108315;1254;61173;-68
2023/04/24 10:17:54;;;;;;;6.00;2.70;;;;;;;30.85;15.22;99883.76;108232;1253;75936;-68
2023/04/24 10:20:23;;;;;;;5.10;2.30;;;;;;;30.85;15.36;99880.23;108201;1253;70387;-69
2023/04/24 10:22:51;;;;;;;2.60;2.20;;;;;;;31.06;15.48;99879.56;108198;1253;74601;-69
2023/04/24 10:25:22;;;;;;;7.90;2.70;;;;;;;31.50;15.45;99871.27;108276;1254;62228;-69
2023/04/24 10:27:49;;;;;;;;;;;;;;;32.06;15.12;99868.60;108229;1254;62934;-68
2023/04/24 10:30:16;;;;;;;8.90;2.80;;;;;;;32.63;15.05;99864.84;108176;1252;76091;-69
2023/04/24 10:32:43;;;;;;;5.10;2.70;;;;;;;32.74;14.44;99862.43;108231;1252;71365;-69
2023/04/24 10:35:14;;;;;;;3.50;2.10;;;;;;;33.02;14.38;99857.40;108200;1253;74946;-69
2023/04/24 10:37:48;;;;;;;;;;;;;;;32.43;14.17;99855.21;108356;1257;60474;-69
2023/04/24 10:40:19;;;;;;;8.10;2.70;;;;;;;31.78;13.45;99853.98;108268;1252;60190;-69
2023/04/24 10:42:51;;;;;;;6.20;2.40;;;;;;;32.13;13.70;99852.92;108139;1254;75810;-69
2023/04/24 10:45:21;;;;;;;5.50;2.50;;;;;;;31.66;14.47;99857.39;108111;1253;71632;-69
2023/04/24 10:47:58;;;;;;;3.30;2.30;;;;;;;31.35;14.83;99856.44;108154;1253;75254;-70
2023/04/24 10:50:30;;;;;;;4.50;2.80;;;;;;;31.38;14.83;99858.65;108160;1254;60996;-70
2023/04/24 10:53:07;;;;;;;7.30;2.40;;;;;;;31.30;14.83;99858.90;108112;1253;62004;-70
2023/04/24 10:55:45;;;;;;;3.80;2.50;;;;;;;30.70;14.68;99854.73;108440;1252;76000;-70
2023/04/24 10:58:16;;;;;;;6.30;2.90;;;;;;;30.44;14.94;99855.39;108224;1254;71034;-71
2023/04/24 11:00:46;;;;;;;5.30;2.90;;;;;;;30.42;15.19;99851.15;108143;1254;74919;-69
2023/04/24 11:03:24;;;;;;;5.00;2.80;;;;;;;30.27;16.08;99850.35;108126;1253;61435;-69
2023/04/24 11:06:05;;;;;;;7.20;3.50;;;;;;;30.39;16.26;99850.73;108245;1253;61955;-72
2023/04/24 11:08:37;;;;;;;6.90;3.20;;;;;;;30.58;16.30;99845.25;108162;1253;75187;-70
2023/04/24 11:11:12;;;;;;;9.40;2.80;;;;;;;30.39;16.52;99848.61;108259;1253;72612;-70
2023/04/24 11:13:57;;;;;;;5.50;2.90;;;;;;;30.31;16.74;99850.44;108123;1253;72079;-71
2023/04/24 11:16:44;;;;;;;5.20;2.90;;;;;;;30.10;16.60;99843.45;108211;1256;60776;-70
2023/04/24 11:19:15;;;;;;;9.00;3.20;;;;;;;29.84;16.81;99843.92;108153;1253;60228;-69
2023/04/24 11:21:48;;;;;;;6.60;2.80;;;;;;;29.74;17.03;99842.06;108267;1252;76038;-69
2023/04/24 11:24:32;;;;;;;4.40;2.80;;;;;;;29.61;17.29;99841.13;108391;1254;73733;-70